createdAt,value
2018-08-12T00:00:58.294Z,7.53
2018-08-12T00:03:27.643Z,7.40
2018-08-12T00:05:56.914Z,7.73
2018-08-12T00:08:26.191Z,7.40
2018-08-12T00:10:55.654Z,7.33
2018-08-12T00:13:24.978Z,10.33
2018-08-12T00:15:54.346Z,9.80
2018-08-12T00:18:23.609Z,8.37
2018-08-12T00:20:52.901Z,9.57
2018-08-12T00:23:22.308Z,7.93
2018-08-12T00:25:51.616Z,9.00
2018-08-12T00:28:20.918Z,6.87
2018-08-12T00:30:50.206Z,8.13
2018-08-12T00:33:19.597Z,7.50
2018-08-12T00:35:48.822Z,8.80
2018-08-12T00:38:18.157Z,7.17
2018-08-12T00:40:47.416Z,7.17
2018-08-12T00:43:16.747Z,8.10
2018-08-12T00:45:46.043Z,8.70
2018-08-12T00:48:15.411Z,9.40
2018-08-12T00:50:44.699Z,8.07
2018-08-12T00:53:13.886Z,7.47
2018-08-12T00:55:43.221Z,7.90
2018-08-12T00:58:12.569Z,10.60
2018-08-12T01:00:42.084Z,9.07
2018-08-12T01:03:11.342Z,9.37
2018-08-12T01:05:40.603Z,7.63
2018-08-12T01:08:10.025Z,8.03
2018-08-12T01:10:39.431Z,9.30
2018-08-12T01:13:08.780Z,8.13
2018-08-12T01:15:38.051Z,7.40
2018-08-12T01:18:07.592Z,9.00
2018-08-12T01:20:37.091Z,9.93
2018-08-12T01:23:06.410Z,9.80
2018-08-12T01:25:35.782Z,13.60
2018-08-12T01:28:05.448Z,7.40
2018-08-12T01:30:34.734Z,9.40
2018-08-12T01:33:04.178Z,13.97
2018-08-12T01:35:33.754Z,9.50
2018-08-12T01:38:03.153Z,7.37
2018-08-12T01:40:32.582Z,10.10
2018-08-12T01:43:02.433Z,8.37
2018-08-12T01:45:31.774Z,16.57
2018-08-12T01:48:01.132Z,6.60
2018-08-12T01:50:30.420Z,8.03
2018-08-12T01:52:59.739Z,7.70
2018-08-12T01:55:28.989Z,8.10
2018-08-12T01:57:58.276Z,11.23
2018-08-12T02:00:27.556Z,7.67
2018-08-12T02:02:56.788Z,8.07
2018-08-12T02:05:26.131Z,8.10
2018-08-12T02:07:55.414Z,9.60
2018-08-12T02:10:24.708Z,8.10
2018-08-12T02:12:54.059Z,8.63
2018-08-12T02:15:23.388Z,9.10
2018-08-12T02:17:52.667Z,8.23
2018-08-12T02:20:21.966Z,10.10
2018-08-12T02:22:51.898Z,8.07
2018-08-12T02:25:21.210Z,9.27
2018-08-12T02:27:50.552Z,15.43
2018-08-12T02:30:19.872Z,8.33
2018-08-12T02:32:49.623Z,10.30
2018-08-12T02:35:18.855Z,9.90
2018-08-12T02:37:48.071Z,10.20
2018-08-12T02:40:17.372Z,14.00
2018-08-12T02:42:46.614Z,8.83
2018-08-12T02:45:16.930Z,11.10
2018-08-12T02:47:46.132Z,11.13
2018-08-12T02:50:15.443Z,12.90
2018-08-12T02:52:44.921Z,10.53
2018-08-12T02:55:14.166Z,11.97
2018-08-12T02:57:43.489Z,8.43
2018-08-12T03:00:13.830Z,10.17
2018-08-12T03:02:43.130Z,7.63
2018-08-12T03:05:12.539Z,9.53
2018-08-12T03:07:41.768Z,9.33
2018-08-12T03:10:11.535Z,8.47
2018-08-12T03:12:40.767Z,8.27
2018-08-12T03:15:11.070Z,10.27
2018-08-12T03:20:12.217Z,8.60
2018-08-12T03:22:41.893Z,7.57
2018-08-12T03:25:12.178Z,8.00
2018-08-12T03:27:41.624Z,8.10
2018-08-12T03:30:11.871Z,8.37
2018-08-12T03:32:41.597Z,7.20
2018-08-12T03:35:11.006Z,7.37
2018-08-12T03:37:40.546Z,9.70
2018-08-12T03:40:12.368Z,7.70
2018-08-12T03:42:41.982Z,8.20
2018-08-12T03:45:11.752Z,7.80
2018-08-12T03:47:41.062Z,7.00
2018-08-12T03:50:11.545Z,6.93
2018-08-12T03:52:40.986Z,10.07
2018-08-12T03:55:10.345Z,9.20
2018-08-12T03:57:39.535Z,6.97
2018-08-12T04:00:18.140Z,7.00
2018-08-12T04:02:48.488Z,8.93
2018-08-12T04:05:18.548Z,6.90
2018-08-12T04:07:47.953Z,6.83
2018-08-12T04:10:17.280Z,7.10
2018-08-12T04:12:46.541Z,9.30
2018-08-12T04:15:15.739Z,7.80
2018-08-12T04:17:44.974Z,7.63
2018-08-12T04:20:14.239Z,6.70
2018-08-12T04:22:43.547Z,10.63
2018-08-12T04:25:12.920Z,11.10
2018-08-12T04:27:42.252Z,10.97
2018-08-12T04:30:11.983Z,14.43
2018-08-12T04:32:41.315Z,10.43
2018-08-12T04:35:10.606Z,20.23
2018-08-12T04:37:39.953Z,7.10
2018-08-12T04:40:09.439Z,7.10
2018-08-12T04:42:44.856Z,8.63
2018-08-12T04:45:14.287Z,7.33
2018-08-12T04:47:43.834Z,8.57
2018-08-12T04:50:13.182Z,7.20
2018-08-12T04:52:42.774Z,7.53
2018-08-12T04:55:12.159Z,8.27
2018-08-12T04:57:41.444Z,10.97
2018-08-12T05:00:10.697Z,8.47
2018-08-12T05:02:40.095Z,6.20
2018-08-12T05:05:10.138Z,6.70
2018-08-12T05:07:40.391Z,11.00
2018-08-12T05:10:09.735Z,7.30
2018-08-12T05:12:39.151Z,9.03
2018-08-12T05:15:09.758Z,7.57
2018-08-12T05:17:39.226Z,7.90
2018-08-12T05:20:09.071Z,9.57
2018-08-12T05:22:38.537Z,6.57
2018-08-12T05:25:08.077Z,6.00
2018-08-12T05:27:37.558Z,7.20
2018-08-12T05:30:08.578Z,9.40
2018-08-12T05:32:37.979Z,5.60
2018-08-12T05:35:09.736Z,10.93
2018-08-12T05:37:39.122Z,5.30
2018-08-12T05:40:10.125Z,5.20
2018-08-12T05:42:39.388Z,4.73
2018-08-12T05:45:10.058Z,4.37
2018-08-12T05:47:40.264Z,4.93
2018-08-12T05:50:10.390Z,4.07
2018-08-12T05:52:39.639Z,4.03
2018-08-12T05:55:09.729Z,5.30
2018-08-12T05:57:39.175Z,5.60
2018-08-12T06:00:11.248Z,4.07
2018-08-12T06:02:40.748Z,3.90
2018-08-12T06:05:10.652Z,3.00
2018-08-12T06:07:40.014Z,3.40
2018-08-12T06:10:10.983Z,3.20
2018-08-12T06:12:40.256Z,3.37
2018-08-12T06:15:11.251Z,2.97
2018-08-12T06:17:40.602Z,7.63
2018-08-12T06:20:11.798Z,4.50
2018-08-12T06:22:41.299Z,3.50
2018-08-12T06:25:11.854Z,15.97
2018-08-12T06:27:41.449Z,3.33
2018-08-12T06:30:14.340Z,6.90
2018-08-12T06:32:43.754Z,2.80
2018-08-12T06:35:13.633Z,3.30
2018-08-12T06:37:43.155Z,4.10
2018-08-12T06:40:14.218Z,2.90
2018-08-12T06:42:45.022Z,5.20
2018-08-12T06:45:17.634Z,3.67
2018-08-12T06:47:48.027Z,2.90
2018-08-12T06:50:17.331Z,4.00
2018-08-12T06:52:46.619Z,5.07
2018-08-12T06:55:16.442Z,3.53
2018-08-12T06:57:45.643Z,3.63
2018-08-12T07:00:17.151Z,4.97
2018-08-12T07:02:46.495Z,3.27
2018-08-12T07:05:15.741Z,6.40
2018-08-12T07:07:45.008Z,5.40
2018-08-12T07:10:15.287Z,7.60
2018-08-12T07:12:44.703Z,3.50
2018-08-12T07:15:16.094Z,7.83
2018-08-12T07:17:46.336Z,3.23
2018-08-12T07:20:16.066Z,3.10
2018-08-12T07:22:45.407Z,4.00
2018-08-12T07:25:15.241Z,3.43
2018-08-12T07:27:44.733Z,3.23
2018-08-12T07:30:15.633Z,3.60
2018-08-12T07:32:45.723Z,3.63
2018-08-12T07:35:15.153Z,3.20
2018-08-12T07:37:44.498Z,3.97
2018-08-12T07:40:18.986Z,3.73
2018-08-12T07:42:49.298Z,7.77
2018-08-12T07:45:18.611Z,7.10
2018-08-12T07:47:47.904Z,3.67
2018-08-12T07:50:17.271Z,3.30
2018-08-12T07:52:46.723Z,3.30
2018-08-12T07:55:16.068Z,4.37
2018-08-12T07:57:45.572Z,4.53
2018-08-12T08:00:17.448Z,3.67
2018-08-12T08:02:47.235Z,3.67
2018-08-12T08:05:16.546Z,3.90
2018-08-12T08:07:45.859Z,3.80
2018-08-12T08:10:16.591Z,3.83
2018-08-12T08:12:46.206Z,3.40
2018-08-12T08:15:20.751Z,4.10
2018-08-12T08:17:50.266Z,4.33
2018-08-12T08:20:19.587Z,3.23
2018-08-12T08:22:48.991Z,4.37
2018-08-12T08:25:18.317Z,3.27
2018-08-12T08:27:47.861Z,4.53
2018-08-12T08:30:17.312Z,3.57
2018-08-12T08:32:46.572Z,6.03
2018-08-12T08:35:15.842Z,2.57
2018-08-12T08:37:45.201Z,3.00
2018-08-12T08:40:16.653Z,2.90
2018-08-12T08:42:46.314Z,2.30
2018-08-12T08:45:18.797Z,2.50
2018-08-12T08:47:50.239Z,2.47
2018-08-12T08:50:20.998Z,2.40
2018-08-12T08:52:50.437Z,2.43
2018-08-12T08:55:19.631Z,4.00
2018-08-12T08:57:48.944Z,2.40
2018-08-12T09:00:20.734Z,2.53
2018-08-12T09:02:51.506Z,2.20
2018-08-12T09:05:21.026Z,1.43
2018-08-12T09:07:50.847Z,2.33
2018-08-12T09:10:23.195Z,2.70
2018-08-12T09:12:52.621Z,2.17
2018-08-12T09:15:22.207Z,2.23
2018-08-12T09:17:51.646Z,2.40
2018-08-12T09:20:21.812Z,4.23
2018-08-12T09:22:51.137Z,2.60
2018-08-12T09:25:31.550Z,1.83
2018-08-12T09:28:07.674Z,2.73
2018-08-12T09:30:37.114Z,2.00
2018-08-12T09:33:06.534Z,2.17
2018-08-12T09:35:35.888Z,1.83
2018-08-12T09:38:05.261Z,3.10
2018-08-12T09:40:34.543Z,1.70
2018-08-12T09:43:03.900Z,4.17
2018-08-12T09:45:33.132Z,3.77
2018-08-12T09:48:02.391Z,2.60
2018-08-12T09:50:31.601Z,2.03
2018-08-12T09:53:00.875Z,2.20
2018-08-12T09:55:30.128Z,1.90
2018-08-12T09:57:59.400Z,2.00
2018-08-12T10:00:32.859Z,2.07
2018-08-12T10:03:02.239Z,2.43
2018-08-12T10:05:31.471Z,3.80
2018-08-12T10:08:01.960Z,1.60
2018-08-12T10:10:31.303Z,1.97
2018-08-12T10:13:00.619Z,2.37
2018-08-12T10:15:30.601Z,2.07
2018-08-12T10:18:01.609Z,1.70
2018-08-12T10:20:32.827Z,2.50
2018-08-12T10:23:02.324Z,1.80
2018-08-12T10:25:32.099Z,5.00
2018-08-12T10:28:02.923Z,2.00
2018-08-12T10:30:32.485Z,2.47
2018-08-12T10:33:03.775Z,2.33
2018-08-12T10:35:33.194Z,2.30
2018-08-12T10:38:03.106Z,1.90
2018-08-12T10:41:03.536Z,2.00
2018-08-12T10:43:32.884Z,2.20
2018-08-12T10:46:02.304Z,3.13
2018-08-12T10:48:31.636Z,3.03
2018-08-12T10:51:01.518Z,6.40
2018-08-12T10:53:31.379Z,2.47
2018-08-12T10:56:03.166Z,2.90
2018-08-12T10:58:35.358Z,2.80
2018-08-12T11:01:12.840Z,2.17
2018-08-12T11:09:39.193Z,2.53
2018-08-12T11:12:09.321Z,2.60
2018-08-12T11:14:40.352Z,3.20
2018-08-12T11:17:19.253Z,2.40
2018-08-12T11:19:51.123Z,2.60
2018-08-12T11:22:22.175Z,2.43
2018-08-12T11:24:51.703Z,2.73
2018-08-12T11:27:26.127Z,2.40
2018-08-12T11:29:56.420Z,2.10
2018-08-12T11:32:26.363Z,9.03
2018-08-12T11:34:56.595Z,11.37
2018-08-12T11:37:26.379Z,3.10
2018-08-12T11:39:56.088Z,2.30
2018-08-12T11:42:25.771Z,4.20
2018-08-12T11:44:55.219Z,2.33
2018-08-12T11:47:26.183Z,3.30
2018-08-12T11:49:57.616Z,2.40
2018-08-12T11:52:27.182Z,2.00
2018-08-12T11:54:59.227Z,2.20
2018-08-12T11:57:28.561Z,2.90
2018-08-12T11:59:59.980Z,3.77
2018-08-12T12:02:29.820Z,2.30
2018-08-12T12:04:59.399Z,3.23
2018-08-12T12:07:30.010Z,7.17
2018-08-12T12:09:59.361Z,2.37
2018-08-12T12:12:28.712Z,4.50
2018-08-12T12:14:58.285Z,2.87
2018-08-12T12:17:27.943Z,2.10
2018-08-12T12:19:57.757Z,3.03
2018-08-12T12:22:27.042Z,2.57
2018-08-12T12:24:56.345Z,2.50
2018-08-12T12:27:25.588Z,1.93
2018-08-12T12:29:54.861Z,2.13
2018-08-12T12:32:28.414Z,2.50
2018-08-12T12:34:57.899Z,2.53
2018-08-12T12:37:27.899Z,5.10
2018-08-12T12:39:59.646Z,2.43
2018-08-12T12:42:29.261Z,2.80
2018-08-12T12:44:58.756Z,3.63
2018-08-12T12:47:28.607Z,2.10
2018-08-12T12:49:58.131Z,1.97
2018-08-12T12:52:27.568Z,3.63
2018-08-12T12:54:56.963Z,1.90
2018-08-12T12:57:26.451Z,2.60
2018-08-12T12:59:55.910Z,2.13
2018-08-12T13:02:25.280Z,2.20
2018-08-12T13:04:54.596Z,2.37
2018-08-12T13:07:23.899Z,1.80
2018-08-12T13:09:53.214Z,1.97
2018-08-12T13:12:22.831Z,2.17
2018-08-12T13:14:52.161Z,2.53
2018-08-12T13:17:21.520Z,2.27
2018-08-12T13:19:50.840Z,2.30
2018-08-12T13:22:20.151Z,2.33
2018-08-12T13:24:49.555Z,2.20
2018-08-12T13:27:19.305Z,3.27
2018-08-12T13:29:48.665Z,2.47
2018-08-12T13:32:18.354Z,1.90
2018-08-12T13:34:47.792Z,1.87
2018-08-12T13:37:18.117Z,2.40
2018-08-12T13:39:47.474Z,4.20
2018-08-12T13:42:16.888Z,2.27
2018-08-12T13:44:46.240Z,2.40
2018-08-12T13:47:16.351Z,3.33
2018-08-12T13:49:45.861Z,2.00
2018-08-12T13:52:15.358Z,2.33
2018-08-12T13:54:44.717Z,3.27
2018-08-12T13:57:14.064Z,2.23
2018-08-12T13:59:43.542Z,2.23
2018-08-12T14:02:13.014Z,1.97
2018-08-12T14:04:42.577Z,2.03
2018-08-12T14:07:12.023Z,2.70
2018-08-12T14:09:41.526Z,4.00
2018-08-12T14:12:14.765Z,2.47
2018-08-12T14:14:44.149Z,2.23
2018-08-12T14:17:14.017Z,4.53
2018-08-12T14:19:43.984Z,2.40
2018-08-12T14:22:13.626Z,2.10
2018-08-12T14:24:42.977Z,2.30
2018-08-12T14:27:14.744Z,2.00
2018-08-12T14:29:44.687Z,2.30
2018-08-12T14:32:14.021Z,2.47
2018-08-12T14:34:43.989Z,3.93
2018-08-12T14:37:14.706Z,3.90
2018-08-12T14:39:44.761Z,3.77
2018-08-12T14:42:14.753Z,2.20
2018-08-12T14:44:47.978Z,2.20
2018-08-12T14:47:43.289Z,2.47
2018-08-12T14:50:17.142Z,2.80
2018-08-12T14:52:46.894Z,2.60
2018-08-12T14:55:18.073Z,2.80
2018-08-12T14:57:53.157Z,2.30
2018-08-12T15:00:22.621Z,2.50
2018-08-12T15:02:52.771Z,5.23
2018-08-12T15:05:22.358Z,2.00
2018-08-12T15:07:51.595Z,1.80
2018-08-12T15:10:20.852Z,3.17
2018-08-12T15:12:50.238Z,2.60
2018-08-12T15:15:19.664Z,4.10
2018-08-12T15:17:49.007Z,2.83
2018-08-12T15:20:19.475Z,3.70
2018-08-12T15:22:48.835Z,2.57
2018-08-12T15:25:19.924Z,5.13
2018-08-12T15:27:49.382Z,2.23
2018-08-12T15:30:18.848Z,2.95
2018-08-12T15:32:48.146Z,2.30
2018-08-12T15:35:17.490Z,2.30
2018-08-12T15:37:46.750Z,3.07
2018-08-12T15:40:16.852Z,2.60
2018-08-12T15:42:46.282Z,3.43
2018-08-12T15:45:16.880Z,2.30
2018-08-12T15:47:47.008Z,2.40
2018-08-12T15:50:16.576Z,2.00
2018-08-12T15:52:46.749Z,3.33
2018-08-12T15:55:16.533Z,3.10
2018-08-12T15:57:45.786Z,2.13
2018-08-12T16:00:18.288Z,3.97
2018-08-12T16:02:47.700Z,3.23
2018-08-12T16:05:17.217Z,2.60
2018-08-12T16:07:47.629Z,1.90
2018-08-12T16:10:19.945Z,3.00
2018-08-12T16:12:50.323Z,2.67
2018-08-12T16:15:19.851Z,2.37
2018-08-12T16:17:49.147Z,2.30
2018-08-12T16:20:18.400Z,2.30
2018-08-12T16:22:47.786Z,6.00
2018-08-12T16:25:18.572Z,2.50
2018-08-12T16:27:47.847Z,2.70
2018-08-12T16:30:18.117Z,8.23
2018-08-12T16:32:47.412Z,2.10
2018-08-12T16:35:17.500Z,2.30
2018-08-12T16:37:47.408Z,2.47
2018-08-12T16:40:18.480Z,2.40
2018-08-12T16:42:48.267Z,2.60
2018-08-12T16:45:18.371Z,3.70
2018-08-12T16:47:48.281Z,4.40
2018-08-12T16:50:17.670Z,4.00
2018-08-12T16:52:46.926Z,2.20
2018-08-12T16:55:17.836Z,3.10
2018-08-12T16:57:47.773Z,2.50
2018-08-12T17:00:19.087Z,2.53
2018-08-12T17:02:48.834Z,2.50
2018-08-12T17:05:22.973Z,2.20
2018-08-12T17:07:52.684Z,2.70
2018-08-12T17:10:22.207Z,2.37
2018-08-12T17:12:51.461Z,2.10
2018-08-12T17:15:21.935Z,2.07
2018-08-12T17:17:51.456Z,2.47
2018-08-12T17:20:21.971Z,2.00
2018-08-12T17:22:51.277Z,7.40
2018-08-12T17:25:20.481Z,2.30
2018-08-12T17:27:49.737Z,2.83
2018-08-12T17:30:18.995Z,2.70
2018-08-12T17:32:48.193Z,3.63
2018-08-12T17:35:17.575Z,2.67
2018-08-12T17:37:46.878Z,2.20
2018-08-12T17:40:16.660Z,2.60
2018-08-12T17:42:46.155Z,4.80
2018-08-12T17:45:15.622Z,3.10
2018-08-12T17:47:44.973Z,2.80
2018-08-12T17:50:16.758Z,3.13
2018-08-12T17:52:46.098Z,3.57
2018-08-12T17:55:16.539Z,4.00
2018-08-12T17:57:46.234Z,3.10
2018-08-12T18:00:17.318Z,3.00
2018-08-12T18:02:47.020Z,3.23
2018-08-12T18:05:16.971Z,3.50
2018-08-12T18:07:46.697Z,7.43
2018-08-12T18:10:16.398Z,2.90
2018-08-12T18:12:46.178Z,2.57
2018-08-12T18:15:15.577Z,3.70
2018-08-12T18:17:45.233Z,3.23
2018-08-12T18:20:14.846Z,3.50
2018-08-12T18:22:44.710Z,3.27
2018-08-12T18:25:14.309Z,3.07
2018-08-12T18:27:43.960Z,4.53
2018-08-12T18:30:14.998Z,6.50
2018-08-12T18:32:45.110Z,3.13
2018-08-12T18:35:14.821Z,4.83
2018-08-12T18:37:44.424Z,5.60
2018-08-12T18:40:14.408Z,4.40
2018-08-12T18:42:44.182Z,5.23
2018-08-12T18:45:13.446Z,3.40
2018-08-12T18:47:43.192Z,3.03
2018-08-12T18:50:13.444Z,3.47
2018-08-12T18:52:42.948Z,4.53
2018-08-12T18:55:14.260Z,3.87
2018-08-12T18:57:43.929Z,3.13
2018-08-12T19:00:15.082Z,3.30
2018-08-12T19:02:44.861Z,4.00
2018-08-12T19:05:14.776Z,6.63
2018-08-12T19:07:44.419Z,5.20
2018-08-12T19:10:13.994Z,4.40
2018-08-12T19:12:44.230Z,4.37
2018-08-12T19:15:14.134Z,4.73
2018-08-12T19:17:43.955Z,4.20
2018-08-12T19:20:13.783Z,4.30
2018-08-12T19:22:43.843Z,3.93
2018-08-12T19:25:13.859Z,4.67
2018-08-12T19:27:43.443Z,5.10
2018-08-12T19:30:13.991Z,5.23
2018-08-12T19:32:43.358Z,5.90
2018-08-12T19:35:13.385Z,5.53
2018-08-12T19:37:43.485Z,4.37
2018-08-12T19:40:13.314Z,5.10
2018-08-12T19:42:42.810Z,5.33
2018-08-12T19:45:13.155Z,5.40
2018-08-12T19:47:42.846Z,5.40
2018-08-12T19:50:12.441Z,4.10
2018-08-12T19:52:42.200Z,4.67
2018-08-12T19:55:11.881Z,5.23
2018-08-12T19:57:41.330Z,4.97
2018-08-12T20:00:13.410Z,6.10
2018-08-12T20:02:44.098Z,4.40
2018-08-12T20:05:13.893Z,6.77
2018-08-12T20:07:43.952Z,4.60
2018-08-12T20:10:13.637Z,4.50
2018-08-12T20:12:43.317Z,5.20
2018-08-12T20:15:13.434Z,6.43
2018-08-12T20:17:43.190Z,5.80
2018-08-12T20:20:14.388Z,9.87
2018-08-12T20:22:48.304Z,6.10
2018-08-12T20:25:17.823Z,4.23
2018-08-12T20:27:49.320Z,4.77
2018-08-12T20:30:19.205Z,4.47
2018-08-12T20:32:48.748Z,6.20
2018-08-12T20:35:18.271Z,4.87
2018-08-12T20:37:48.700Z,4.47
2018-08-12T20:40:18.758Z,4.23
2018-08-12T20:42:49.165Z,7.40
2018-08-12T20:45:20.089Z,4.23
2018-08-12T20:47:51.148Z,7.43
2018-08-12T20:50:22.588Z,5.37
2018-08-12T20:52:52.491Z,5.47
2018-08-12T20:55:22.934Z,5.10
2018-08-12T20:57:53.264Z,6.70
2018-08-12T21:00:25.562Z,5.10
2018-08-12T21:02:55.821Z,5.77
2018-08-12T21:05:26.137Z,7.70
2018-08-12T21:07:55.995Z,6.23
2018-08-12T21:10:25.778Z,5.90
2018-08-12T21:12:55.876Z,6.60
2018-08-12T21:15:25.838Z,8.03
2018-08-12T21:17:55.458Z,8.90
2018-08-12T21:20:25.301Z,11.37
2018-08-12T21:22:55.471Z,9.43
2018-08-12T21:25:25.191Z,11.47
2018-08-12T21:27:55.875Z,7.80
2018-08-12T21:30:25.787Z,8.47
2018-08-12T21:32:55.179Z,8.70
2018-08-12T21:35:25.836Z,8.03
2018-08-12T21:37:55.319Z,13.07
2018-08-12T21:40:24.734Z,9.70
2018-08-12T21:42:54.106Z,8.07
2018-08-12T21:45:23.447Z,8.73
2018-08-12T21:47:52.807Z,7.00
2018-08-12T21:50:22.153Z,6.83
2018-08-12T21:52:51.495Z,7.80
2018-08-12T21:55:20.955Z,7.53
2018-08-12T21:57:50.296Z,8.73
2018-08-12T22:00:19.663Z,8.67
2018-08-12T22:02:49.111Z,6.80
2018-08-12T22:05:18.509Z,6.30
2018-08-12T22:07:47.821Z,6.80
2018-08-12T22:10:17.176Z,7.80
2018-08-12T22:12:46.614Z,6.37
2018-08-12T22:15:15.979Z,8.00
2018-08-12T22:17:45.373Z,6.57
2018-08-12T22:20:14.752Z,6.47
2018-08-12T22:22:44.105Z,5.27
2018-08-12T22:25:13.482Z,5.47
2018-08-12T22:27:42.832Z,5.00
2018-08-12T22:30:15.344Z,5.83
2018-08-12T22:32:44.720Z,7.30
2018-08-12T22:35:14.162Z,5.53
2018-08-12T22:37:43.592Z,7.03
2018-08-12T22:40:12.988Z,6.10
2018-08-12T22:42:42.303Z,6.90
2018-08-12T22:45:12.310Z,5.47
2018-08-12T22:47:42.355Z,5.93
2018-08-12T22:50:11.875Z,6.17
2018-08-12T22:52:41.336Z,5.70
2018-08-12T22:55:11.355Z,5.50
2018-08-12T22:57:40.760Z,7.10
2018-08-12T23:00:14.899Z,6.00
2018-08-12T23:02:44.294Z,6.40
2018-08-12T23:05:13.778Z,5.93
2018-08-12T23:07:43.015Z,6.33
2018-08-12T23:10:12.320Z,6.20
2018-08-12T23:12:41.945Z,5.60
2018-08-12T23:15:22.154Z,6.53
2018-08-12T23:17:51.428Z,6.87
2018-08-12T23:20:21.731Z,5.17
2018-08-12T23:22:50.968Z,5.57
2018-08-12T23:25:20.257Z,5.30
2018-08-12T23:27:49.530Z,5.80
2018-08-12T23:30:18.739Z,6.10
2018-08-12T23:32:47.969Z,5.00
2018-08-12T23:35:17.310Z,5.10
2018-08-12T23:37:46.559Z,6.03
2018-08-12T23:40:15.735Z,6.13
2018-08-12T23:42:44.968Z,6.00
2018-08-12T23:45:14.621Z,6.27
2018-08-12T23:47:43.847Z,6.17
2018-08-12T23:50:13.140Z,5.97
2018-08-12T23:52:42.643Z,6.20
2018-08-12T23:55:11.893Z,5.40
2018-08-12T23:57:41.182Z,10.43
